sensor_id;sensor_type;location;lat;lon;timestamp;pressure;altitude;pressure_sealevel;temperature;humidity
22653;BME280;11493;43.344;26.226;2024-03-17T00:01:39;99669.59;;;3.56;100.00
22653;BME280;11493;43.344;26.226;2024-03-17T00:04:07;99690.13;;;3.69;100.00
22653;BME280;11493;43.344;26.226;2024-03-17T00:06:33;99696.34;;;3.64;100.00
22653;BME280;11493;43.344;26.226;2024-03-17T00:08:59;99697.19;;;3.70;100.00
22653;BME280;11493;43.344;26.226;2024-03-17T00:11:26;99697.97;;;3.65;100.00
22653;BME280;11493;43.344;26.226;2024-03-17T00:13:52;99691.94;;;3.58;100.00
22653;BME280;11493;43.344;26.226;2024-03-17T00:16:18;99694.09;;;3.56;100.00
22653;BME280;11493;43.344;26.226;2024-03-17T00:18:45;99687.53;;;3.52;100.00
22653;BME280;11493;43.344;26.226;2024-03-17T00:21:13;99677.75;;;3.56;100.00
22653;BME280;11493;43.344;26.226;2024-03-17T00:23:39;99690.03;;;3.58;100.00
22653;BME280;11493;43.344;26.226;2024-03-17T00:26:05;99681.88;;;3.58;100.00
22653;BME280;11493;43.344;26.226;2024-03-17T00:28:31;99680.22;;;3.57;100.00
22653;BME280;11493;43.344;26.226;2024-03-17T00:30:58;99679.72;;;3.60;100.00
22653;BME280;11493;43.344;26.226;2024-03-17T00:33:24;99671.19;;;3.52;100.00
22653;BME280;11493;43.344;26.226;2024-03-17T00:35:50;99643.31;;;3.35;100.00
22653;BME280;11493;43.344;26.226;2024-03-17T00:38:17;99671.19;;;3.52;100.00
22653;BME280;11493;43.344;26.226;2024-03-17T00:40:43;99674.69;;;3.47;100.00
22653;BME280;11493;43.344;26.226;2024-03-17T00:43:11;99677.63;;;3.41;100.00
22653;BME280;11493;43.344;26.226;2024-03-17T00:45:37;99681.25;;;3.51;100.00
22653;BME280;11493;43.344;26.226;2024-03-17T00:48:04;99682.59;;;3.49;100.00
22653;BME280;11493;43.344;26.226;2024-03-17T00:50:32;99678.50;;;3.46;100.00
22653;BME280;11493;43.344;26.226;2024-03-17T00:52:58;99674.09;;;3.40;100.00
22653;BME280;11493;43.344;26.226;2024-03-17T00:55:25;99680.88;;;3.38;100.00
22653;BME280;11493;43.344;26.226;2024-03-17T00:57:51;99677.63;;;3.41;100.00
22653;BME280;11493;43.344;26.226;2024-03-17T01:00:17;99672.66;;;3.33;100.00
22653;BME280;11493;43.344;26.226;2024-03-17T01:02:43;99668.25;;;3.26;100.00
22653;BME280;11493;43.344;26.226;2024-03-17T01:05:09;99651.66;;;3.23;100.00
22653;BME280;11493;43.344;26.226;2024-03-17T01:07:35;99678.09;;;3.33;100.00
22653;BME280;11493;43.344;26.226;2024-03-17T01:10:01;99675.03;;;3.24;100.00
22653;BME280;11493;43.344;26.226;2024-03-17T01:12:27;99676.38;;;3.21;100.00
22653;BME280;11493;43.344;26.226;2024-03-17T01:14:53;99676.69;;;3.25;100.00
22653;BME280;11493;43.344;26.226;2024-03-17T01:17:19;99672.53;;;3.17;100.00
22653;BME280;11493;43.344;26.226;2024-03-17T01:19:45;99665.97;;;3.13;100.00
22653;BME280;11493;43.344;26.226;2024-03-17T01:22:11;99677.41;;;3.15;100.00
22653;BME280;11493;43.344;26.226;2024-03-17T01:24:37;99676.63;;;3.20;100.00
22653;BME280;11493;43.344;26.226;2024-03-17T01:27:07;99670.06;;;3.16;100.00
22653;BME280;11493;43.344;26.226;2024-03-17T01:29:33;99664.28;;;3.07;100.00
22653;BME280;11493;43.344;26.226;2024-03-17T01:31:59;99674.63;;;3.10;100.00
22653;BME280;11493;43.344;26.226;2024-03-17T01:34:25;99668.06;;;3.06;100.00
22653;BME280;11493;43.344;26.226;2024-03-17T01:36:51;99673.50;;;3.06;100.00
22653;BME280;11493;43.344;26.226;2024-03-17T01:39:17;99644.88;;;2.93;100.00
22653;BME280;11493;43.344;26.226;2024-03-17T01:41:44;99654.94;;;2.93;100.00
22653;BME280;11493;43.344;26.226;2024-03-17T01:44:26;99659.22;;;2.89;100.00
22653;BME280;11493;43.344;26.226;2024-03-17T01:46:53;99669.84;;;2.90;100.00
22653;BME280;11493;43.344;26.226;2024-03-17T01:49:20;99662.47;;;2.86;100.00
22653;BME280;11493;43.344;26.226;2024-03-17T01:51:48;99671.13;;;2.83;100.00
22653;BME280;11493;43.344;26.226;2024-03-17T01:54:15;99667.03;;;2.80;100.00
22653;BME280;11493;43.344;26.226;2024-03-17T01:56:42;99668.91;;;2.80;100.00
22653;BME280;11493;43.344;26.226;2024-03-17T01:59:09;99656.28;;;2.69;100.00
22653;BME280;11493;43.344;26.226;2024-03-17T02:01:36;99668.28;;;2.73;100.00
22653;BME280;11493;43.344;26.226;2024-03-17T02:04:04;99675.88;;;2.71;100.00
22653;BME280;11493;43.344;26.226;2024-03-17T02:06:30;99650.75;;;2.58;100.00
22653;BME280;11493;43.344;26.226;2024-03-17T02:08:56;99657.00;;;2.59;100.00
22653;BME280;11493;43.344;26.226;2024-03-17T02:11:27;99671.16;;;2.61;100.00
22653;BME280;11493;43.344;26.226;2024-03-17T02:13:53;99671.72;;;2.63;100.00
22653;BME280;11493;43.344;26.226;2024-03-17T02:16:20;99666.41;;;2.51;100.00
22653;BME280;11493;43.344;26.226;2024-03-17T02:18:46;99661.88;;;2.57;100.00
22653;BME280;11493;43.344;26.226;2024-03-17T02:21:13;99668.69;;;2.59;100.00
22653;BME280;11493;43.344;26.226;2024-03-17T02:23:44;99666.66;;;2.50;100.00
22653;BME280;11493;43.344;26.226;2024-03-17T02:26:10;99672.97;;;2.55;100.00
22653;BME280;11493;43.344;26.226;2024-03-17T02:28:41;99662.13;;;2.55;100.00
22653;BME280;11493;43.344;26.226;2024-03-17T02:31:09;99671.91;;;2.56;100.00
22653;BME280;11493;43.344;26.226;2024-03-17T02:33:35;99667.00;;;2.53;100.00
22653;BME280;11493;43.344;26.226;2024-03-17T02:36:05;99670.72;;;2.47;100.00
22653;BME280;11493;43.344;26.226;2024-03-17T02:38:36;99668.56;;;2.49;100.00
22653;BME280;11493;43.344;26.226;2024-03-17T02:41:21;99663.13;;;2.49;100.00
22653;BME280;11493;43.344;26.226;2024-03-17T02:43:47;99676.22;;;2.52;100.00
22653;BME280;11493;43.344;26.226;2024-03-17T02:46:15;99666.66;;;2.50;100.00
22653;BME280;11493;43.344;26.226;2024-03-17T02:48:42;99664.97;;;2.44;100.00
22653;BME280;11493;43.344;26.226;2024-03-17T02:51:13;99668.50;;;2.44;100.00
22653;BME280;11493;43.344;26.226;2024-03-17T02:53:43;99676.09;;;2.42;100.00
22653;BME280;11493;43.344;26.226;2024-03-17T02:56:14;99666.81;;;2.38;100.00
22653;BME280;11493;43.344;26.226;2024-03-17T02:58:44;99660.81;;;2.36;100.00
22653;BME280;11493;43.344;26.226;2024-03-17T03:01:12;99663.50;;;2.36;100.00
22653;BME280;11493;43.344;26.226;2024-03-17T03:03:38;99660.47;;;2.33;100.00
22653;BME280;11493;43.344;26.226;2024-03-17T03:06:05;99665.16;;;2.37;100.00
22653;BME280;11493;43.344;26.226;2024-03-17T03:08:38;99671.91;;;2.35;100.00
22653;BME280;11493;43.344;26.226;2024-03-17T03:11:10;99664.59;;;2.35;100.00
22653;BME280;11493;43.344;26.226;2024-03-17T03:13:40;99667.50;;;2.28;100.00
22653;BME280;11493;43.344;26.226;2024-03-17T03:16:07;99664.22;;;2.26;100.00
22653;BME280;11493;43.344;26.226;2024-03-17T03:18:35;99667.75;;;2.27;100.00
22653;BME280;11493;43.344;26.226;2024-03-17T03:21:01;99665.03;;;2.27;100.00
22653;BME280;11493;43.344;26.226;2024-03-17T03:23:27;99661.13;;;2.18;100.00
22653;BME280;11493;43.344;26.226;2024-03-17T03:26:00;99670.94;;;2.19;100.00
22653;BME280;11493;43.344;26.226;2024-03-17T03:28:31;99670.94;;;2.19;100.00
22653;BME280;11493;43.344;26.226;2024-03-17T03:30:57;99672.31;;;2.21;100.00
22653;BME280;11493;43.344;26.226;2024-03-17T03:33:24;99666.00;;;2.16;100.00
22653;BME280;11493;43.344;26.226;2024-03-17T03:35:50;99669.84;;;2.20;100.00
22653;BME280;11493;43.344;26.226;2024-03-17T03:38:17;99677.69;;;2.16;100.00
22653;BME280;11493;43.344;26.226;2024-03-17T03:40:43;99679.25;;;2.12;100.00
22653;BME280;11493;43.344;26.226;2024-03-17T03:43:10;99668.41;;;2.12;100.00
22653;BME280;11493;43.344;26.226;2024-03-17T03:45:37;99675.78;;;2.17;100.00
22653;BME280;11493;43.344;26.226;2024-03-17T03:48:03;99666.75;;;2.11;100.00
22653;BME280;11493;43.344;26.226;2024-03-17T03:50:30;99677.03;;;2.09;100.00
22653;BME280;11493;43.344;26.226;2024-03-17T03:52:56;99671.03;;;2.07;100.00
22653;BME280;11493;43.344;26.226;2024-03-17T03:55:22;99676.97;;;2.04;100.00
22653;BME280;11493;43.344;26.226;2024-03-17T03:57:50;99675.56;;;2.02;100.00
22653;BME280;11493;43.344;26.226;2024-03-17T04:00:21;99683.22;;;2.05;100.00
22653;BME280;11493;43.344;26.226;2024-03-17T04:02:48;99682.16;;;2.06;100.00
22653;BME280;11493;43.344;26.226;2024-03-17T04:05:16;99664.91;;;1.95;100.00
22653;BME280;11493;43.344;26.226;2024-03-17T04:07:42;99673.50;;;2.09;100.00
22653;BME280;11493;43.344;26.226;2024-03-17T04:10:09;99674.19;;;1.99;100.00
22653;BME280;11493;43.344;26.226;2024-03-17T04:12:35;99679.38;;;2.01;100.00
22653;BME280;11493;43.344;26.226;2024-03-17T04:15:01;99682.56;;;1.97;100.00
22653;BME280;11493;43.344;26.226;2024-03-17T04:17:28;99684.78;;;2.01;100.00
22653;BME280;11493;43.344;26.226;2024-03-17T04:19:54;99680.69;;;1.98;100.00
22653;BME280;11493;43.344;26.226;2024-03-17T04:22:21;99671.66;;;1.92;100.00
22653;BME280;11493;43.344;26.226;2024-03-17T04:24:48;99693.75;;;2.01;100.00
22653;BME280;11493;43.344;26.226;2024-03-17T04:27:24;99686.34;;;1.96;100.00
22653;BME280;11493;43.344;26.226;2024-03-17T04:29:54;99687.50;;;2.01;100.00
22653;BME280;11493;43.344;26.226;2024-03-17T04:32:22;99689.97;;;2.02;100.00
22653;BME280;11493;43.344;26.226;2024-03-17T04:34:49;99696.22;;;2.03;100.00
22653;BME280;11493;43.344;26.226;2024-03-17T04:37:16;99689.06;;;1.96;100.00
22653;BME280;11493;43.344;26.226;2024-03-17T04:39:43;99703.88;;;2.06;100.00
22653;BME280;11493;43.344;26.226;2024-03-17T04:42:11;99701.66;;;2.03;100.00
22653;BME280;11493;43.344;26.226;2024-03-17T04:44:37;99713.41;;;2.08;100.00
22653;BME280;11493;43.344;26.226;2024-03-17T04:47:03;99717.31;;;2.17;100.00
22653;BME280;11493;43.344;26.226;2024-03-17T04:49:43;99713.78;;;2.17;100.00
22653;BME280;11493;43.344;26.226;2024-03-17T04:52:11;99695.72;;;2.06;100.00
22653;BME280;11493;43.344;26.226;2024-03-17T04:54:38;99709.19;;;2.17;100.00
22653;BME280;11493;43.344;26.226;2024-03-17T04:57:04;99718.25;;;2.28;100.00
22653;BME280;11493;43.344;26.226;2024-03-17T04:59:33;99725.66;;;2.33;100.00
22653;BME280;11493;43.344;26.226;2024-03-17T05:02:00;99714.03;;;2.37;100.00
22653;BME280;11493;43.344;26.226;2024-03-17T05:04:26;99732.69;;;2.50;100.00
22653;BME280;11493;43.344;26.226;2024-03-17T05:06:52;99722.88;;;2.49;100.00
22653;BME280;11493;43.344;26.226;2024-03-17T05:09:19;99734.38;;;2.56;100.00
22653;BME280;11493;43.344;26.226;2024-03-17T05:11:45;99736.84;;;2.58;100.00
22653;BME280;11493;43.344;26.226;2024-03-17T05:14:13;99736.34;;;2.61;100.00
22653;BME280;11493;43.344;26.226;2024-03-17T05:16:39;99715.31;;;2.51;100.00
22653;BME280;11493;43.344;26.226;2024-03-17T05:19:05;99736.09;;;2.62;100.00
22653;BME280;11493;43.344;26.226;2024-03-17T05:21:34;99731.75;;;2.61;100.00
22653;BME280;11493;43.344;26.226;2024-03-17T05:24:03;99715.88;;;2.75;100.00
22653;BME280;11493;43.344;26.226;2024-03-17T05:26:30;99736.47;;;2.93;100.00
22653;BME280;11493;43.344;26.226;2024-03-17T05:28:59;99740.59;;;3.01;100.00
22653;BME280;11493;43.344;26.226;2024-03-17T05:31:25;99744.31;;;3.16;100.00
22653;BME280;11493;43.344;26.226;2024-03-17T05:33:51;99727.13;;;3.11;100.00
22653;BME280;11493;43.344;26.226;2024-03-17T05:36:18;99737.03;;;3.22;100.00
22653;BME280;11493;43.344;26.226;2024-03-17T05:38:47;99744.47;;;3.32;100.00
22653;BME280;11493;43.344;26.226;2024-03-17T05:41:13;99746.91;;;3.33;100.00
22653;BME280;11493;43.344;26.226;2024-03-17T05:43:39;99741.88;;;3.47;100.00
22653;BME280;11493;43.344;26.226;2024-03-17T05:46:07;99745.53;;;3.57;100.00
22653;BME280;11493;43.344;26.226;2024-03-17T05:48:34;99743.72;;;3.73;100.00
22653;BME280;11493;43.344;26.226;2024-03-17T05:51:12;99753.66;;;3.89;100.00
22653;BME280;11493;43.344;26.226;2024-03-17T05:53:39;99751.53;;;3.96;100.00
22653;BME280;11493;43.344;26.226;2024-03-17T05:56:10;99756.97;;;3.96;100.00
22653;BME280;11493;43.344;26.226;2024-03-17T05:58:39;99742.53;;;3.96;100.00
22653;BME280;11493;43.344;26.226;2024-03-17T06:01:06;99753.56;;;4.11;100.00
22653;BME280;11493;43.344;26.226;2024-03-17T06:03:37;99730.44;;;4.19;100.00
22653;BME280;11493;43.344;26.226;2024-03-17T06:06:05;99738.19;;;4.37;100.00
22653;BME280;11493;43.344;26.226;2024-03-17T06:08:38;99744.28;;;4.59;100.00
22653;BME280;11493;43.344;26.226;2024-03-17T06:11:04;99743.50;;;4.69;100.00
22653;BME280;11493;43.344;26.226;2024-03-17T06:13:30;99741.09;;;4.78;100.00
22653;BME280;11493;43.344;26.226;2024-03-17T06:15:56;99754.25;;;4.96;100.00
22653;BME280;11493;43.344;26.226;2024-03-17T06:18:27;99757.56;;;5.08;100.00
22653;BME280;11493;43.344;26.226;2024-03-17T06:20:53;99762.47;;;5.11;100.00
22653;BME280;11493;43.344;26.226;2024-03-17T06:23:19;99745.59;;;5.19;100.00
22653;BME280;11493;43.344;26.226;2024-03-17T06:25:47;99766.63;;;5.39;100.00
22653;BME280;11493;43.344;26.226;2024-03-17T06:28:14;99769.13;;;5.61;100.00
22653;BME280;11493;43.344;26.226;2024-03-17T06:30:53;99774.59;;;5.76;100.00
22653;BME280;11493;43.344;26.226;2024-03-17T06:33:20;99773.22;;;5.84;100.00
22653;BME280;11493;43.344;26.226;2024-03-17T06:35:47;99772.41;;;6.04;100.00
22653;BME280;11493;43.344;26.226;2024-03-17T06:38:14;99759.28;;;6.11;100.00
22653;BME280;11493;43.344;26.226;2024-03-17T06:40:42;99762.53;;;6.38;100.00
22653;BME280;11493;43.344;26.226;2024-03-17T06:43:39;99775.06;;;6.59;100.00
22653;BME280;11493;43.344;26.226;2024-03-17T06:46:21;99776.59;;;6.86;100.00
22653;BME280;11493;43.344;26.226;2024-03-17T06:48:54;99761.19;;;7.05;100.00
22653;BME280;11493;43.344;26.226;2024-03-17T06:51:24;99764.91;;;7.30;100.00
22653;BME280;11493;43.344;26.226;2024-03-17T06:53:50;99766.91;;;7.53;100.00
22653;BME280;11493;43.344;26.226;2024-03-17T06:56:17;99779.09;;;7.76;100.00
22653;BME280;11493;43.344;26.226;2024-03-17T06:58:43;99766.34;;;7.95;100.00
22653;BME280;11493;43.344;26.226;2024-03-17T07:01:09;99766.66;;;8.17;100.00
22653;BME280;11493;43.344;26.226;2024-03-17T07:03:35;99741.50;;;8.15;100.00
22653;BME280;11493;43.344;26.226;2024-03-17T07:06:02;99769.16;;;8.48;100.00
22653;BME280;11493;43.344;26.226;2024-03-17T07:08:31;99773.44;;;8.59;100.00
22653;BME280;11493;43.344;26.226;2024-03-17T07:11:05;99746.22;;;8.63;100.00
22653;BME280;11493;43.344;26.226;2024-03-17T07:13:36;99768.91;;;8.92;100.00
22653;BME280;11493;43.344;26.226;2024-03-17T07:16:04;99775.63;;;9.05;100.00
22653;BME280;11493;43.344;26.226;2024-03-17T07:18:34;99767.47;;;9.18;100.00
22653;BME280;11493;43.344;26.226;2024-03-17T07:21:02;99769.28;;;9.28;100.00
22653;BME280;11493;43.344;26.226;2024-03-17T07:23:32;99769.66;;;9.40;100.00
22653;BME280;11493;43.344;26.226;2024-03-17T07:26:00;99772.13;;;9.61;100.00
22653;BME280;11493;43.344;26.226;2024-03-17T07:28:26;99773.56;;;9.72;100.00
22653;BME280;11493;43.344;26.226;2024-03-17T07:30:54;99772.50;;;9.86;100.00
22653;BME280;11493;43.344;26.226;2024-03-17T07:33:21;99768.41;;;10.03;100.00
22653;BME280;11493;43.344;26.226;2024-03-17T07:35:55;99755.19;;;10.05;100.00
22653;BME280;11493;43.344;26.226;2024-03-17T07:38:23;99766.97;;;10.24;100.00
22653;BME280;11493;43.344;26.226;2024-03-17T07:41:00;99774.75;;;10.36;100.00
22653;BME280;11493;43.344;26.226;2024-03-17T07:43:28;99767.31;;;10.50;100.00
22653;BME280;11493;43.344;26.226;2024-03-17T07:46:05;99771.09;;;10.68;100.00
22653;BME280;11493;43.344;26.226;2024-03-17T07:48:32;99771.22;;;10.90;100.00
22653;BME280;11493;43.344;26.226;2024-03-17T07:51:03;99768.78;;;11.02;100.00
22653;BME280;11493;43.344;26.226;2024-03-17T07:53:33;99772.28;;;11.16;100.00
22653;BME280;11493;43.344;26.226;2024-03-17T07:56:04;99761.47;;;11.34;100.00
22653;BME280;11493;43.344;26.226;2024-03-17T07:58:32;99769.06;;;11.50;100.00
22653;BME280;11493;43.344;26.226;2024-03-17T08:01:12;99758.84;;;11.65;100.00
22653;BME280;11493;43.344;26.226;2024-03-17T08:03:40;99749.00;;;11.72;100.00
22653;BME280;11493;43.344;26.226;2024-03-17T08:06:07;99751.16;;;11.75;100.00
22653;BME280;11493;43.344;26.226;2024-03-17T08:08:34;99752.41;;;11.92;100.00
22653;BME280;11493;43.344;26.226;2024-03-17T08:11:00;99734.22;;;11.91;100.00
22653;BME280;11493;43.344;26.226;2024-03-17T08:13:33;99740.75;;;12.17;100.00
22653;BME280;11493;43.344;26.226;2024-03-17T08:16:07;99728.56;;;12.18;100.00
22653;BME280;11493;43.344;26.226;2024-03-17T08:18:36;99729.31;;;12.32;100.00
22653;BME280;11493;43.344;26.226;2024-03-17T08:21:03;99729.84;;;12.43;99.80
22653;BME280;11493;43.344;26.226;2024-03-17T08:23:30;99731.88;;;12.60;98.30
22653;BME280;11493;43.344;26.226;2024-03-17T08:25:57;99730.44;;;12.71;97.46
22653;BME280;11493;43.344;26.226;2024-03-17T08:28:25;99730.00;;;12.86;91.68
22653;BME280;11493;43.344;26.226;2024-03-17T08:30:55;99742.38;;;12.97;89.54
22653;BME280;11493;43.344;26.226;2024-03-17T08:33:22;99705.66;;;12.88;90.01
22653;BME280;11493;43.344;26.226;2024-03-17T08:36:04;99719.50;;;13.05;91.21
22653;BME280;11493;43.344;26.226;2024-03-17T08:38:31;99738.25;;;13.17;92.11
22653;BME280;11493;43.344;26.226;2024-03-17T08:41:10;99726.16;;;13.04;90.56
22653;BME280;11493;43.344;26.226;2024-03-17T08:43:37;99732.25;;;13.24;90.08
22653;BME280;11493;43.344;26.226;2024-03-17T08:46:06;99719.09;;;13.29;91.56
22653;BME280;11493;43.344;26.226;2024-03-17T08:48:33;99731.59;;;13.44;90.45
22653;BME280;11493;43.344;26.226;2024-03-17T08:51:01;99714.53;;;13.51;90.12
22653;BME280;11493;43.344;26.226;2024-03-17T08:53:28;99723.66;;;13.68;89.31
22653;BME280;11493;43.344;26.226;2024-03-17T08:55:54;99720.22;;;13.71;89.07
22653;BME280;11493;43.344;26.226;2024-03-17T08:58:21;99718.59;;;13.53;86.81
22653;BME280;11493;43.344;26.226;2024-03-17T09:00:47;99718.94;;;13.69;86.14
22653;BME280;11493;43.344;26.226;2024-03-17T09:03:13;99717.47;;;13.80;82.36
22653;BME280;11493;43.344;26.226;2024-03-17T09:05:41;99711.59;;;13.99;83.04
22653;BME280;11493;43.344;26.226;2024-03-17T09:08:23;99715.63;;;14.10;83.51
22653;BME280;11493;43.344;26.226;2024-03-17T09:10:54;99702.84;;;14.35;84.89
22653;BME280;11493;43.344;26.226;2024-03-17T09:13:30;99707.94;;;14.15;85.59
22653;BME280;11493;43.344;26.226;2024-03-17T09:16:01;99710.19;;;14.31;84.66
22653;BME280;11493;43.344;26.226;2024-03-17T09:18:32;99701.84;;;14.39;84.47
22653;BME280;11493;43.344;26.226;2024-03-17T09:21:07;99698.56;;;14.55;83.14
22653;BME280;11493;43.344;26.226;2024-03-17T09:23:34;99695.25;;;14.70;80.93
22653;BME280;11493;43.344;26.226;2024-03-17T09:26:02;99691.28;;;14.79;78.70
22653;BME280;11493;43.344;26.226;2024-03-17T09:28:32;99701.69;;;15.12;78.16
22653;BME280;11493;43.344;26.226;2024-03-17T09:30:59;99691.00;;;15.23;76.65
22653;BME280;11493;43.344;26.226;2024-03-17T09:33:26;99684.84;;;15.17;76.96
22653;BME280;11493;43.344;26.226;2024-03-17T09:36:04;99685.28;;;14.98;76.08
22653;BME280;11493;43.344;26.226;2024-03-17T09:38:32;99681.50;;;15.03;75.96
22653;BME280;11493;43.344;26.226;2024-03-17T09:40:59;99693.09;;;14.75;75.30
22653;BME280;11493;43.344;26.226;2024-03-17T09:43:29;99675.31;;;14.38;79.47
22653;BME280;11493;43.344;26.226;2024-03-17T09:45:55;99674.31;;;14.52;79.25
22653;BME280;11493;43.344;26.226;2024-03-17T09:48:25;99670.13;;;14.75;78.15
22653;BME280;11493;43.344;26.226;2024-03-17T09:50:57;99675.75;;;14.87;77.04
22653;BME280;11493;43.344;26.226;2024-03-17T09:53:28;99682.97;;;14.79;74.02
22653;BME280;11493;43.344;26.226;2024-03-17T09:56:03;99671.34;;;14.86;75.00
22653;BME280;11493;43.344;26.226;2024-03-17T09:58:31;99676.63;;;15.00;73.68
22653;BME280;11493;43.344;26.226;2024-03-17T10:00:57;99669.31;;;15.25;72.22
22653;BME280;11493;43.344;26.226;2024-03-17T10:06:09;99663.81;;;15.16;67.95
22653;BME280;11493;43.344;26.226;2024-03-17T10:11:11;99654.06;;;14.89;69.98
22653;BME280;11493;43.344;26.226;2024-03-17T10:13:37;99657.59;;;14.98;71.44
22653;BME280;11493;43.344;26.226;2024-03-17T10:16:03;99656.50;;;15.11;69.30
22653;BME280;11493;43.344;26.226;2024-03-17T10:18:30;99647.78;;;15.01;69.28
22653;BME280;11493;43.344;26.226;2024-03-17T10:20:56;99639.06;;;15.11;68.67
22653;BME280;11493;43.344;26.226;2024-03-17T10:23:24;99651.25;;;15.19;68.37
22653;BME280;11493;43.344;26.226;2024-03-17T10:25:50;99635.88;;;15.00;67.17
22653;BME280;11493;43.344;26.226;2024-03-17T10:28:17;99648.19;;;15.11;66.22
22653;BME280;11493;43.344;26.226;2024-03-17T10:30:59;99645.16;;;15.04;66.89
22653;BME280;11493;43.344;26.226;2024-03-17T10:33:26;99654.63;;;15.24;65.79
22653;BME280;11493;43.344;26.226;2024-03-17T10:36:00;99651.59;;;15.38;66.45
22653;BME280;11493;43.344;26.226;2024-03-17T10:38:27;99646.97;;;15.63;66.35
22653;BME280;11493;43.344;26.226;2024-03-17T10:40:53;99638.88;;;15.58;65.96
22653;BME280;11493;43.344;26.226;2024-03-17T10:43:20;99641.75;;;15.61;66.37
22653;BME280;11493;43.344;26.226;2024-03-17T10:45:54;99629.56;;;15.74;65.34
22653;BME280;11493;43.344;26.226;2024-03-17T10:48:26;99631.38;;;15.58;65.14
22653;BME280;11493;43.344;26.226;2024-03-17T10:50:59;99637.00;;;15.83;62.29
22653;BME280;11493;43.344;26.226;2024-03-17T10:53:26;99624.66;;;15.92;63.13
22653;BME280;11493;43.344;26.226;2024-03-17T10:56:14;99610.31;;;15.90;62.43
22653;BME280;11493;43.344;26.226;2024-03-17T10:58:44;99623.19;;;16.07;61.49
22653;BME280;11493;43.344;26.226;2024-03-17T11:01:19;99610.47;;;16.06;59.65
22653;BME280;11493;43.344;26.226;2024-03-17T11:03:46;99617.88;;;16.26;54.20
22653;BME280;11493;43.344;26.226;2024-03-17T11:06:13;99613.72;;;16.20;56.41
22653;BME280;11493;43.344;26.226;2024-03-17T11:08:39;99605.38;;;16.20;56.00
22653;BME280;11493;43.344;26.226;2024-03-17T11:11:07;99600.53;;;16.29;57.74
22653;BME280;11493;43.344;26.226;2024-03-17T11:13:34;99605.59;;;16.39;54.20
22653;BME280;11493;43.344;26.226;2024-03-17T11:16:02;99596.84;;;16.25;49.46
22653;BME280;11493;43.344;26.226;2024-03-17T11:18:35;99595.09;;;16.21;52.36
22653;BME280;11493;43.344;26.226;2024-03-17T11:21:18;99586.88;;;16.12;51.61
22653;BME280;11493;43.344;26.226;2024-03-17T11:23:57;99588.81;;;16.36;49.64
22653;BME280;11493;43.344;26.226;2024-03-17T11:26:29;99585.47;;;16.55;50.28
22653;BME280;11493;43.344;26.226;2024-03-17T11:28:55;99577.38;;;16.50;52.03
22653;BME280;11493;43.344;26.226;2024-03-17T11:31:41;99590.00;;;16.71;52.51
22653;BME280;11493;43.344;26.226;2024-03-17T11:34:34;99584.66;;;16.79;54.27
22653;BME280;11493;43.344;26.226;2024-03-17T11:37:02;99571.59;;;16.79;51.68
22653;BME280;11493;43.344;26.226;2024-03-17T11:39:51;99576.63;;;17.01;54.84
22653;BME280;11493;43.344;26.226;2024-03-17T11:42:26;99572.97;;;16.85;52.28
22653;BME280;11493;43.344;26.226;2024-03-17T11:45:02;99581.78;;;16.75;52.85
22653;BME280;11493;43.344;26.226;2024-03-17T11:47:40;99568.56;;;16.60;53.62
22653;BME280;11493;43.344;26.226;2024-03-17T11:50:08;99570.78;;;16.42;53.86
22653;BME280;11493;43.344;26.226;2024-03-17T11:52:37;99559.44;;;16.35;54.78
22653;BME280;11493;43.344;26.226;2024-03-17T11:55:15;99567.09;;;16.14;55.11
22653;BME280;11493;43.344;26.226;2024-03-17T11:57:41;99564.41;;;15.93;57.43
22653;BME280;11493;43.344;26.226;2024-03-17T12:00:19;99563.91;;;15.78;57.39
22653;BME280;11493;43.344;26.226;2024-03-17T12:02:48;99556.50;;;15.70;57.82
22653;BME280;11493;43.344;26.226;2024-03-17T12:05:18;99558.13;;;15.71;58.03
22653;BME280;11493;43.344;26.226;2024-03-17T12:07:48;99553.03;;;15.73;58.07
22653;BME280;11493;43.344;26.226;2024-03-17T12:10:14;99541.97;;;15.86;57.10
22653;BME280;11493;43.344;26.226;2024-03-17T12:12:40;99539.78;;;16.03;56.20
22653;BME280;11493;43.344;26.226;2024-03-17T12:15:19;99531.94;;;16.18;55.94
22653;BME280;11493;43.344;26.226;2024-03-17T12:17:52;99539.81;;;16.28;54.97
22653;BME280;11493;43.344;26.226;2024-03-17T12:20:20;99536.91;;;16.24;54.95
22653;BME280;11493;43.344;26.226;2024-03-17T12:22:47;99549.06;;;16.20;55.15
22653;BME280;11493;43.344;26.226;2024-03-17T12:25:18;99524.16;;;16.35;54.33
22653;BME280;11493;43.344;26.226;2024-03-17T12:27:45;99535.25;;;16.48;54.25
22653;BME280;11493;43.344;26.226;2024-03-17T12:30:12;99527.84;;;16.39;53.65
22653;BME280;11493;43.344;26.226;2024-03-17T12:32:38;99533.56;;;16.31;54.40
22653;BME280;11493;43.344;26.226;2024-03-17T12:35:13;99522.56;;;16.10;55.62
22653;BME280;11493;43.344;26.226;2024-03-17T12:37:39;99529.50;;;16.16;55.61
22653;BME280;11493;43.344;26.226;2024-03-17T12:40:18;99528.34;;;16.05;54.44
22653;BME280;11493;43.344;26.226;2024-03-17T12:42:50;99530.91;;;16.22;55.83
22653;BME280;11493;43.344;26.226;2024-03-17T12:45:21;99507.97;;;16.25;54.73
22653;BME280;11493;43.344;26.226;2024-03-17T12:47:48;99512.59;;;16.33;53.52
22653;BME280;11493;43.344;26.226;2024-03-17T12:50:15;99515.78;;;16.60;53.40
22653;BME280;11493;43.344;26.226;2024-03-17T12:52:52;99518.09;;;16.82;53.15
22653;BME280;11493;43.344;26.226;2024-03-17T12:55:19;99520.72;;;16.91;51.86
22653;BME280;11493;43.344;26.226;2024-03-17T13:01:06;99511.31;;;16.95;50.53
22653;BME280;11493;43.344;26.226;2024-03-17T13:03:36;99513.84;;;17.00;50.86
22653;BME280;11493;43.344;26.226;2024-03-17T13:06:03;99508.91;;;16.94;50.13
22653;BME280;11493;43.344;26.226;2024-03-17T13:08:33;99501.03;;;16.96;50.60